Positano Jet — IFTU — position and weather

sailwx.info

Track history (hours):
 
Tides and Currents Weather Stations Pressure Air Temp Water Temp Dewpoint Dewpoint Depression Visibility Wind Speed Wind Dir Waves Ship Positions

Positano Jet

Last reported at 2016-Apr-29 09:33 UTC. Time now 2016-Apr-29 10:05 UTC.
Position N 40°33' E 014°14'.

Length 23 m; draft 2 m.

Type: Ship. MMSI: 247160800.

Date/timePositionNaut miles runAvg speedWind from/ knotsBaromVisibWave heightAir tempDewpointWater temp
2016-Apr-29 09:33N 40°33' E 014°14'12 0.7
2016-Apr-28 16:33N 40°37' E 014°29'1111.4
2016-Apr-28 15:33N 40°33' E 014°15'1211.4
2016-Apr-28 14:31N 40°37' E 014°29'6 5.9
2016-Apr-28 13:29N 40°35' E 014°22'6 6.5
2016-Apr-28 12:33N 40°33' E 014°14'0 0.0
2016-Apr-28 11:33N 40°33' E 014°14'0 0.0
2016-Apr-28 10:33N 40°33' E 014°14'0 0.0
2016-Apr-28 09:33N 40°33' E 014°14'1111.2
2016-Apr-28 08:33N 40°37' E 014°28'1 0.8
2016-Apr-28 07:33N 40°37' E 014°29'1 0.0
2016-Apr-27 16:33N 40°37' E 014°29'8 7.9
2016-Apr-27 15:33N 40°34' E 014°19'9 7.8
2016-Apr-27 14:28N 40°37' E 014°29'5 5.6
2016-Apr-27 13:32N 40°35' E 014°23'7 6.9
2016-Apr-27 12:33N 40°33' E 014°14'0 0.0
2016-Apr-27 11:34N 40°33' E 014°14'0 0.0
2016-Apr-27 10:34N 40°33' E 014°14'0 0.0
2016-Apr-27 09:33N 40°33' E 014°14'1110.6
2016-Apr-27 08:33N 40°37' E 014°28'2 1.5
2016-Apr-27 07:33N 40°37' E 014°29'1 0.1
2016-Apr-26 16:33N 40°37' E 014°28'8 7.6
2016-Apr-26 15:34N 40°34' E 014°19'9 8.7
2016-Apr-26 14:33N 40°37' E 014°29'6 5.6
2016-Apr-26 13:30N 40°35' E 014°22'6 6.6
2016-Apr-26 12:33N 40°33' E 014°14'0 0.0
2016-Apr-26 11:33N 40°33' E 014°14'0 0.0
2016-Apr-26 10:33N 40°33' E 014°14'0 0.0
2016-Apr-26 09:33N 40°33' E 014°14'1110.8
2016-Apr-26 08:33N 40°37' E 014°28'7 7.1
2016-Apr-26 07:33N 40°36' E 014°19'  
2016-Apr-22 16:33N 40°37' E 014°29'9 9.5
2016-Apr-22 15:33N 40°34' E 014°17'10 9.7
2016-Apr-22 14:33N 40°38' E 014°29'6 5.5
2016-Apr-22 13:32N 40°35' E 014°23'6 6.5
2016-Apr-22 12:33N 40°33' E 014°14'0 0.0
2016-Apr-22 11:30N 40°33' E 014°14'0 0.0
2016-Apr-22 10:33N 40°33' E 014°14'0 0.0
2016-Apr-22 09:32N 40°33' E 014°14'1111.2
2016-Apr-22 08:33N 40°37' E 014°28'7 0.4
2016-Apr-21 16:14N 40°34' E 014°20'3 3.7
2016-Apr-21 15:33N 40°34' E 014°17'1010.0
2016-Apr-21 14:33N 40°38' E 014°29'8 6.8
2016-Apr-21 13:26N 40°34' E 014°20'5 5.1
2016-Apr-21 12:33N 40°33' E 014°14'7 6.7
2016-Apr-21 11:33N 40°39' E 014°20'7 6.6
2016-Apr-21 10:33N 40°33' E 014°14'0 0.0
2016-Apr-21 09:33N 40°33' E 014°14'1211.8
2016-Apr-21 08:33N 40°37' E 014°29'0 0.1
2016-Apr-21 07:29N 40°37' E 014°29'2 0.1
2016-Apr-20 16:34N 40°36' E 014°27'10 9.5
2016-Apr-20 15:33N 40°34' E 014°15'1111.4
2016-Apr-20 14:33N 40°38' E 014°29'5 4.5
2016-Apr-20 13:33N 40°35' E 014°24'8 7.5
2016-Apr-20 12:33N 40°33' E 014°14'0 0.0
2016-Apr-20 11:33N 40°33' E 014°14'0 0.0
2016-Apr-20 10:33N 40°33' E 014°14'0 0.0
2016-Apr-20 09:33N 40°33' E 014°14'1111.1
2016-Apr-20 08:33N 40°37' E 014°28'1 1.0
2016-Apr-20 07:33N 40°37' E 014°29'0 0.0
2016-Apr-19 15:33N 40°38' E 014°29'4 4.4
2016-Apr-19 14:34N 40°41' E 014°25'3 3.4
2016-Apr-19 13:33N 40°43' E 014°29'  
Track history (hours):
 
Tides and Currents Weather Stations Pressure Air Temp Water Temp Dewpoint Dewpoint Depression Visibility Wind Speed Wind Dir Waves Ship Positions

Positano Jet

Last reported at 2016-Apr-29 09:33 UTC. Time now 2016-Apr-29 10:05 UTC.
Position N 40°33' E 014°14'.

Length 23 m; draft 2 m.

Type: Ship. MMSI: 247160800.

Date/timePositionNaut miles runAvg speedWind from/ knotsBaromVisibWave heightAir tempDewpointWater temp
2016-Apr-29 09:33N 40°33' E 014°14'12 0.7
2016-Apr-28 16:33N 40°37' E 014°29'1111.4
2016-Apr-28 15:33N 40°33' E 014°15'1211.4
2016-Apr-28 14:31N 40°37' E 014°29'6 5.9
2016-Apr-28 13:29N 40°35' E 014°22'6 6.5
2016-Apr-28 12:33N 40°33' E 014°14'0 0.0
2016-Apr-28 11:33N 40°33' E 014°14'0 0.0
2016-Apr-28 10:33N 40°33' E 014°14'0 0.0
2016-Apr-28 09:33N 40°33' E 014°14'1111.2
2016-Apr-28 08:33N 40°37' E 014°28'1 0.8
2016-Apr-28 07:33N 40°37' E 014°29'1 0.0
2016-Apr-27 16:33N 40°37' E 014°29'8 7.9
2016-Apr-27 15:33N 40°34' E 014°19'9 7.8
2016-Apr-27 14:28N 40°37' E 014°29'5 5.6
2016-Apr-27 13:32N 40°35' E 014°23'7 6.9
2016-Apr-27 12:33N 40°33' E 014°14'0 0.0
2016-Apr-27 11:34N 40°33' E 014°14'0 0.0
2016-Apr-27 10:34N 40°33' E 014°14'0 0.0
2016-Apr-27 09:33N 40°33' E 014°14'1110.6
2016-Apr-27 08:33N 40°37' E 014°28'2 1.5
2016-Apr-27 07:33N 40°37' E 014°29'1 0.1
2016-Apr-26 16:33N 40°37' E 014°28'8 7.6
2016-Apr-26 15:34N 40°34' E 014°19'9 8.7
2016-Apr-26 14:33N 40°37' E 014°29'6 5.6
2016-Apr-26 13:30N 40°35' E 014°22'6 6.6
2016-Apr-26 12:33N 40°33' E 014°14'0 0.0
2016-Apr-26 11:33N 40°33' E 014°14'0 0.0
2016-Apr-26 10:33N 40°33' E 014°14'0 0.0
2016-Apr-26 09:33N 40°33' E 014°14'1110.8
2016-Apr-26 08:33N 40°37' E 014°28'7 7.1
2016-Apr-26 07:33N 40°36' E 014°19'  
2016-Apr-22 16:33N 40°37' E 014°29'9 9.5
2016-Apr-22 15:33N 40°34' E 014°17'10 9.7
2016-Apr-22 14:33N 40°38' E 014°29'6 5.5
2016-Apr-22 13:32N 40°35' E 014°23'6 6.5
2016-Apr-22 12:33N 40°33' E 014°14'0 0.0
2016-Apr-22 11:30N 40°33' E 014°14'0 0.0
2016-Apr-22 10:33N 40°33' E 014°14'0 0.0
2016-Apr-22 09:32N 40°33' E 014°14'1111.2
2016-Apr-22 08:33N 40°37' E 014°28'7 0.4
2016-Apr-21 16:14N 40°34' E 014°20'3 3.7
2016-Apr-21 15:33N 40°34' E 014°17'1010.0
2016-Apr-21 14:33N 40°38' E 014°29'8 6.8
2016-Apr-21 13:26N 40°34' E 014°20'5 5.1
2016-Apr-21 12:33N 40°33' E 014°14'7 6.7
2016-Apr-21 11:33N 40°39' E 014°20'7 6.6
2016-Apr-21 10:33N 40°33' E 014°14'0 0.0
2016-Apr-21 09:33N 40°33' E 014°14'1211.8
2016-Apr-21 08:33N 40°37' E 014°29'0 0.1
2016-Apr-21 07:29N 40°37' E 014°29'2 0.1
2016-Apr-20 16:34N 40°36' E 014°27'10 9.5
2016-Apr-20 15:33N 40°34' E 014°15'1111.4
2016-Apr-20 14:33N 40°38' E 014°29'5 4.5
2016-Apr-20 13:33N 40°35' E 014°24'8 7.5
2016-Apr-20 12:33N 40°33' E 014°14'0 0.0
2016-Apr-20 11:33N 40°33' E 014°14'0 0.0
2016-Apr-20 10:33N 40°33' E 014°14'0 0.0
2016-Apr-20 09:33N 40°33' E 014°14'1111.1
2016-Apr-20 08:33N 40°37' E 014°28'1 1.0
2016-Apr-20 07:33N 40°37' E 014°29'0 0.0
2016-Apr-19 15:33N 40°38' E 014°29'4 4.4
2016-Apr-19 14:34N 40°41' E 014°25'3 3.4
2016-Apr-19 13:33N 40°43' E 014°29'  

Dump ship's entire track history